Time;durP1;ratioP1;P1;durP2;ratioP2;P2;SDS_P1;SDS_P2;PMS_P1;PMS_P2;Temp;Humidity;BMP_temperature;BMP_pressure;BME280_temperature;BME280_humidity;BME280_pressure;Samples;Min_cycle;Max_cycle;Signal;HPM_P1;HPM_P2
2021/12/16 00:08:25;;;;;;;8.88;4.50;;;;;;;8.65;93.23;101903.81;5111647;28;20034;-64
2021/12/16 00:11:00;;;;;;;10.80;4.10;;;;;;;8.61;93.25;101912.66;5103255;28;20027;-64
2021/12/16 00:34:48;;;;;;;10.07;3.80;;;;;;;8.50;91.92;101911.69;5100825;28;20063;-64
2021/12/16 00:37:14;;;;;;;6.65;3.70;;;;;;;8.54;92.05;101920.56;5109152;28;20031;-64
2021/12/16 00:39:41;;;;;;;8.25;3.38;;;;;;;8.53;92.10;101913.50;5108243;28;20035;-64
2021/12/16 00:42:24;;;;;;;8.50;3.85;;;;;;;8.53;91.60;101903.78;5102746;28;20024;-64
2021/12/16 00:45:07;;;;;;;9.27;4.80;;;;;;;8.54;91.96;101912.59;5110594;28;20047;-64
2021/12/16 00:47:47;;;;;;;8.30;4.35;;;;;;;8.55;92.61;101917.06;5104310;28;20035;-64
2021/12/16 00:55:49;;;;;;;11.75;4.50;;;;;;;8.58;92.41;101917.06;5090054;28;20080;-64
2021/12/16 00:58:19;;;;;;;9.80;4.55;;;;;;;8.60;92.67;101925.94;5092926;28;20020;-64
2021/12/16 01:00:55;;;;;;;9.30;4.05;;;;;;;8.62;92.97;101909.13;5108499;28;20035;-64
2021/12/16 01:03:30;;;;;;;7.88;4.00;;;;;;;8.57;92.62;101909.97;5108595;28;20024;-64
2021/12/16 01:38:44;;;;;;;13.18;4.90;;;;;;;8.49;92.49;101927.59;5107236;28;20106;-64
2021/12/16 01:41:31;;;;;;;12.68;5.50;;;;;;;8.53;93.14;101929.41;5113064;28;20032;-64
2021/12/16 01:57:16;;;;;;;8.88;4.20;;;;;;;8.53;93.49;101937.38;5093059;28;20447;-64
2021/12/16 01:59:46;;;;;;;9.13;5.03;;;;;;;8.54;92.96;101934.72;5095055;28;20077;-64
2021/12/16 02:02:34;;;;;;;8.02;4.68;;;;;;;8.51;92.68;101925.84;5102025;28;20491;-64
2021/12/16 02:10:37;;;;;;;10.70;3.88;;;;;;;8.43;93.32;101917.88;5102182;28;20042;-64
2021/12/16 02:13:40;;;;;;;10.18;5.47;;;;;;;8.44;93.48;101919.63;5113123;27;20105;-64
2021/12/16 02:32:30;;;;;;;5.32;2.80;;;;;;;7.89;95.79;101928.88;5102789;28;20414;-64
2021/12/16 02:37:31;;;;;;;6.57;3.33;;;;;;;7.84;96.78;101925.31;5110979;28;20036;-64
2021/12/16 02:39:57;;;;;;;5.70;3.17;;;;;;;7.80;96.96;101928.81;5101713;28;20042;-64
2021/12/16 02:42:34;;;;;;;7.90;3.05;;;;;;;7.76;97.09;101926.09;5102206;28;20031;-64
2021/12/16 02:50:19;;;;;;;6.20;3.08;;;;;;;7.82;97.13;101916.44;5108915;28;20078;-64
2021/12/16 02:52:45;;;;;;;8.70;3.60;;;;;;;7.80;97.54;101912.94;5104908;28;20028;-64
2021/12/16 02:55:14;;;;;;;7.07;3.28;;;;;;;7.86;97.00;101917.38;5107924;28;20042;-64
2021/12/16 02:57:49;;;;;;;6.13;2.92;;;;;;;7.85;96.67;101916.50;5111865;28;20035;-64
2021/12/16 03:00:16;;;;;;;8.48;3.80;;;;;;;7.79;97.29;101911.13;5111676;28;20441;-64
2021/12/16 03:02:47;;;;;;;10.30;3.53;;;;;;;7.74;97.19;101907.56;5109017;28;20063;-64
2021/12/16 03:05:13;;;;;;;4.65;2.50;;;;;;;7.84;97.45;101916.50;5095032;28;20387;-64
2021/12/16 03:07:39;;;;;;;5.72;2.65;;;;;;;7.87;97.33;101919.16;5091769;28;20080;-64
2021/12/16 03:13:02;;;;;;;5.95;2.67;;;;;;;7.83;96.44;101918.25;5098242;28;20036;-64
2021/12/16 03:18:33;;;;;;;6.50;3.22;;;;;;;7.86;96.83;101923.56;5099592;28;20028;-64
2021/12/16 03:21:07;;;;;;;6.90;3.20;;;;;;;7.85;96.66;101927.09;5112161;28;20030;-64
2021/12/16 03:31:52;;;;;;;5.55;3.10;;;;;;;7.80;97.04;101920.88;5091275;28;19947;-64
2021/12/16 03:37:14;;;;;;;8.20;3.58;;;;;;;7.81;96.49;101920.00;5099002;28;20096;-64
2021/12/16 03:40:07;;;;;;;4.10;2.20;;;;;;;7.81;96.78;101922.63;5111415;28;20050;-64
2021/12/16 03:42:46;;;;;;;7.70;2.75;;;;;;;7.82;97.17;101931.47;5111990;28;20281;-64
2021/12/16 03:46:25;;;;;;;4.55;2.30;;;;;;;7.83;97.10;101938.53;5102425;28;20039;-64
2021/12/16 03:48:05;;;;;;;6.57;2.80;;;;;;;7.81;98.15;101946.47;5091153;28;20031;-64
2021/12/16 03:50:31;;;;;;;6.57;3.20;;;;;;;7.78;97.96;101946.44;5092992;28;20147;-64
2021/12/16 03:52:56;;;;;;;5.22;2.40;;;;;;;7.79;97.99;101937.63;5095806;28;20028;-64
2021/12/16 03:55:22;;;;;;;5.82;2.35;;;;;;;7.93;98.04;101933.34;5090565;28;20020;-64
2021/12/16 03:57:48;;;;;;;7.85;3.50;;;;;;;7.91;97.36;101935.09;5091798;28;20020;-64
2021/12/16 04:00:21;;;;;;;6.22;3.40;;;;;;;7.87;97.07;101941.22;5093701;28;20431;-64
2021/12/16 04:02:47;;;;;;;7.70;2.85;;;;;;;7.88;97.87;101943.03;5110594;28;20027;-64
2021/12/16 04:05:15;;;;;;;5.53;3.35;;;;;;;7.87;97.87;101945.66;5102747;28;20047;-64
2021/12/16 04:07:41;;;;;;;6.05;2.83;;;;;;;7.84;98.11;101946.50;5094529;28;20042;-64
2021/12/16 04:10:23;;;;;;;6.03;3.10;;;;;;;7.87;98.19;101927.97;5099300;28;20147;-64
2021/12/16 04:12:50;;;;;;;6.47;3.72;;;;;;;7.93;97.49;101941.28;5102643;28;20015;-64
2021/12/16 04:15:16;;;;;;;7.00;2.70;;;;;;;7.93;97.25;101940.41;5110304;28;20036;-64
2021/12/16 04:17:42;;;;;;;6.78;3.85;;;;;;;7.91;97.49;101932.44;5100829;28;20085;-64
2021/12/16 04:20:11;;;;;;;9.63;3.53;;;;;;;7.82;97.11;101945.59;5101913;28;20054;-65
2021/12/16 04:22:43;;;;;;;6.35;3.10;;;;;;;7.84;97.77;101953.59;5094694;28;20028;-64
2021/12/16 04:25:20;;;;;;;13.50;3.50;;;;;;;7.89;97.00;101950.06;5091394;28;20024;-64
2021/12/16 04:27:47;;;;;;;5.78;2.78;;;;;;;7.86;96.53;101952.72;5095316;28;20035;-64
2021/12/16 04:30:14;;;;;;;9.50;3.47;;;;;;;7.82;96.59;101953.53;5090089;28;20047;-64
2021/12/16 04:32:40;;;;;;;6.13;2.97;;;;;;;7.77;96.84;101955.28;5091282;28;20039;-64
2021/12/16 04:35:07;;;;;;;7.65;3.08;;;;;;;7.79;96.78;101947.34;5094881;28;20032;-64
2021/12/16 04:37:33;;;;;;;7.38;2.97;;;;;;;7.74;96.28;101949.94;5111078;28;20031;-64
2021/12/16 04:40:02;;;;;;;8.05;3.35;;;;;;;7.67;96.67;101958.72;5110888;28;20043;-64
2021/12/16 04:42:28;;;;;;;5.43;2.60;;;;;;;8.08;95.01;101959.09;5111397;28;20529;-64
2021/12/16 04:44:54;;;;;;;6.00;2.75;;;;;;;8.17;94.50;101959.16;5106124;28;20023;-64
2021/12/16 04:47:19;;;;;;;5.53;3.30;;;;;;;8.24;94.42;101954.84;5103440;28;20104;-64
2021/12/16 04:49:45;;;;;;;5.60;3.03;;;;;;;8.29;93.19;101945.13;5100166;28;20483;-64
2021/12/16 04:52:17;;;;;;;6.30;3.10;;;;;;;8.26;91.87;101946.00;5110049;28;20023;-64
2021/12/16 04:54:44;;;;;;;6.70;3.13;;;;;;;8.14;92.79;101956.47;5098829;28;20100;-64
2021/12/16 04:57:10;;;;;;;8.45;3.33;;;;;;;8.05;92.87;101935.22;5112035;28;20036;-64
2021/12/16 04:59:37;;;;;;;6.30;2.67;;;;;;;8.24;91.63;101946.91;5104258;28;20089;-64
2021/12/16 05:02:15;;;;;;;15.10;4.07;;;;;;;8.14;92.19;101945.00;5094059;28;20027;-64
2021/12/16 05:04:41;;;;;;;7.95;4.00;;;;;;;8.14;92.60;101955.59;5094604;28;20023;-64
2021/12/16 05:07:08;;;;;;;9.93;4.55;;;;;;;8.16;92.76;101948.53;5114630;28;20028;-64
2021/12/16 05:12:03;;;;;;;19.33;7.32;;;;;;;8.13;92.38;101959.13;5108447;28;20031;-64
2021/12/16 05:14:28;;;;;;;10.68;3.95;;;;;;;8.18;93.11;101960.94;5113753;28;20043;-64
2021/12/16 05:16:54;;;;;;;6.40;3.08;;;;;;;8.17;92.41;101960.94;5103559;28;20402;-64
2021/12/16 05:19:20;;;;;;;7.88;3.75;;;;;;;8.16;92.69;101960.03;5114426;28;20089;-64
2021/12/16 05:21:54;;;;;;;7.35;3.38;;;;;;;8.12;92.86;101965.31;5110869;28;20023;-64
2021/12/16 05:24:25;;;;;;;7.78;3.40;;;;;;;8.22;92.86;101969.81;5108262;28;20086;-64
2021/12/16 05:26:57;;;;;;;9.60;4.95;;;;;;;8.19;91.69;101973.31;5113810;28;20028;-63
2021/12/16 05:29:26;;;;;;;6.93;3.58;;;;;;;8.16;91.88;101980.34;5100187;28;20023;-64
2021/12/16 05:31:53;;;;;;;16.40;7.28;;;;;;;8.15;92.25;101991.81;5113563;28;20042;-63
2021/12/16 05:34:20;;;;;;;8.85;5.85;;;;;;;8.25;92.40;101981.38;5106537;28;20130;-64
2021/12/16 05:36:45;;;;;;;10.63;4.72;;;;;;;8.20;92.19;101992.75;5110336;28;20089;-64
2021/12/16 05:39:13;;;;;;;10.65;3.58;;;;;;;8.19;92.63;102006.91;5112858;28;20031;-64
2021/12/16 05:41:38;;;;;;;5.70;3.65;;;;;;;8.09;92.76;101994.44;5104502;28;20051;-63
2021/12/16 05:44:04;;;;;;;6.68;3.45;;;;;;;8.22;92.92;101991.00;5113536;28;20047;-64
2021/12/16 05:46:30;;;;;;;9.73;4.28;;;;;;;8.19;92.30;102013.06;5104546;28;20027;-64
2021/12/16 05:48:57;;;;;;;7.68;3.42;;;;;;;8.15;93.01;102016.59;5097701;28;20073;-64
2021/12/16 05:51:26;;;;;;;6.43;3.20;;;;;;;8.25;92.30;102009.63;5092649;28;20447;-64
2021/12/16 05:53:53;;;;;;;9.20;3.65;;;;;;;8.14;92.94;102000.66;5098879;28;20031;-63
2021/12/16 05:56:19;;;;;;;8.60;4.35;;;;;;;8.13;92.61;102002.41;5114340;28;20169;-64
2021/12/16 05:58:46;;;;;;;6.32;3.95;;;;;;;8.15;92.88;102005.97;5113396;28;20028;-63
2021/12/16 06:01:19;;;;;;;9.75;3.72;;;;;;;8.16;93.35;102001.53;5108873;28;20451;-64
2021/12/16 06:03:45;;;;;;;7.70;3.45;;;;;;;8.14;93.15;102009.47;5098377;28;20391;-64
2021/12/16 06:06:11;;;;;;;6.90;2.72;;;;;;;8.23;92.36;102003.38;5106518;28;20031;-64
2021/12/16 06:08:37;;;;;;;9.25;4.88;;;;;;;8.18;91.72;102010.41;5100274;28;20039;-64
2021/12/16 06:11:17;;;;;;;8.52;4.13;;;;;;;8.17;91.82;102011.28;5092304;28;20023;-64
2021/12/16 06:14:00;;;;;;;8.38;3.03;;;;;;;8.16;92.07;102012.16;5096095;28;20134;-64
2021/12/16 06:27:28;;;;;;;6.65;4.13;;;;;;;8.10;91.92;102012.09;5112854;28;20509;-64
2021/12/16 06:29:54;;;;;;;6.43;4.25;;;;;;;8.02;92.69;102025.28;5113770;28;20119;-63
2021/12/16 06:32:20;;;;;;;9.38;6.05;;;;;;;8.01;92.84;102018.19;5100240;28;20048;-64
2021/12/16 06:34:46;;;;;;;15.60;7.30;;;;;;;8.07;93.05;102017.38;5111863;28;20417;-64
2021/12/16 06:37:12;;;;;;;10.82;5.13;;;;;;;8.06;92.87;102024.44;5112195;28;20035;-64
2021/12/16 06:39:37;;;;;;;14.25;5.32;;;;;;;8.03;93.03;102019.09;5113454;28;20015;-64
2021/12/16 06:42:07;;;;;;;13.50;6.85;;;;;;;8.03;92.56;102022.66;5100972;28;20046;-64
2021/12/16 06:44:41;;;;;;;13.00;6.63;;;;;;;8.01;92.42;102032.34;5092212;28;20162;-64
2021/12/16 06:47:13;;;;;;;14.32;7.18;;;;;;;7.99;92.78;102036.72;5105753;28;20027;-64
2021/12/16 06:49:42;;;;;;;12.55;6.13;;;;;;;7.99;92.53;102036.72;5112521;28;20028;-64
2021/12/16 06:52:11;;;;;;;11.27;6.22;;;;;;;8.03;93.08;102033.25;5112420;28;20030;-64
2021/12/16 07:00:09;;;;;;;12.20;6.80;;;;;;;8.03;93.11;102038.56;5112458;28;20024;-64
2021/12/16 07:05:08;;;;;;;13.93;8.10;;;;;;;8.06;93.14;102040.34;5096332;28;20038;-64
2021/12/16 07:07:34;;;;;;;16.08;6.65;;;;;;;8.08;93.21;102041.25;5091457;28;20373;-64
2021/12/16 07:09:59;;;;;;;13.88;6.00;;;;;;;8.09;93.95;102036.84;5092364;28;20035;-64
2021/12/16 07:12:35;;;;;;;13.70;6.22;;;;;;;8.18;93.27;102035.16;5096879;28;20032;-64
2021/12/16 07:15:04;;;;;;;16.00;6.70;;;;;;;8.12;93.44;102037.75;5110136;28;20051;-64
2021/12/16 07:17:31;;;;;;;10.05;5.68;;;;;;;8.24;93.49;102037.88;5109344;27;20039;-64
2021/12/16 07:19:56;;;;;;;38.97;17.98;;;;;;;8.03;93.24;102043.84;5096499;28;20024;-64
2021/12/16 07:22:21;;;;;;;18.83;9.60;;;;;;;7.97;93.74;102045.56;5091239;28;20518;-64
2021/12/16 07:24:47;;;;;;;19.35;8.85;;;;;;;7.99;93.41;102042.03;5092070;28;20098;-64
2021/12/16 07:27:13;;;;;;;14.32;8.07;;;;;;;8.05;93.47;102039.44;5093987;28;20028;-64
2021/12/16 07:29:38;;;;;;;11.45;5.97;;;;;;;8.01;93.64;102040.28;5106490;28;20111;-64
2021/12/16 07:32:05;;;;;;;10.07;5.03;;;;;;;8.06;93.84;102048.28;5111221;28;20031;-64
2021/12/16 07:34:30;;;;;;;9.27;4.28;;;;;;;8.08;93.99;102062.44;5112216;28;20039;-64
2021/12/16 07:36:56;;;;;;;8.88;4.65;;;;;;;8.11;93.53;102043.00;5101473;28;20028;-64
2021/12/16 07:39:29;;;;;;;9.70;4.93;;;;;;;8.09;93.81;102050.09;5112121;28;20102;-64
2021/12/16 07:41:56;;;;;;;8.15;4.32;;;;;;;8.10;93.64;102049.22;5111456;28;20024;-64
2021/12/16 07:44:23;;;;;;;9.95;4.28;;;;;;;7.95;94.03;102050.84;5112400;28;20027;-64
2021/12/16 07:46:52;;;;;;;6.93;3.75;;;;;;;8.07;94.13;102060.69;5101618;28;20028;-64
2021/12/16 07:49:30;;;;;;;8.55;4.68;;;;;;;8.07;94.07;102061.53;5090945;28;20032;-64
2021/12/16 07:51:57;;;;;;;8.15;3.85;;;;;;;8.11;94.43;102062.47;5095827;28;20031;-64
2021/12/16 07:54:23;;;;;;;12.73;7.13;;;;;;;8.18;94.37;102063.41;5092157;28;20123;-64
2021/12/16 07:56:52;;;;;;;9.77;5.75;;;;;;;8.25;94.12;102065.28;5096885;28;20032;-64
2021/12/16 07:59:18;;;;;;;11.98;5.93;;;;;;;8.16;93.77;102065.16;5111390;28;20027;-64
2021/12/16 08:01:45;;;;;;;11.00;6.32;;;;;;;8.22;93.01;102070.53;5110707;28;20026;-64
2021/12/16 08:04:20;;;;;;;12.00;6.38;;;;;;;8.21;92.51;102074.03;5100966;28;20052;-64
2021/12/16 08:06:48;;;;;;;11.80;5.43;;;;;;;8.23;92.78;102072.31;5110470;28;20080;-64
2021/12/16 08:09:14;;;;;;;9.25;4.80;;;;;;;8.27;93.26;102082.97;5104331;28;20030;-64
2021/12/16 08:11:41;;;;;;;8.55;4.65;;;;;;;8.36;92.66;102084.84;5095099;28;20034;-64
2021/12/16 08:14:08;;;;;;;12.13;5.40;;;;;;;8.31;92.38;102097.16;5090113;28;20044;-64
2021/12/16 08:16:34;;;;;;;12.98;5.43;;;;;;;8.26;92.83;102093.56;5091547;28;20475;-64
2021/12/16 08:19:00;;;;;;;7.85;4.15;;;;;;;8.31;92.55;102107.75;5100838;28;20027;-64
2021/12/16 08:21:29;;;;;;;11.05;4.80;;;;;;;8.36;92.02;102119.31;5110746;28;20435;-64
2021/12/16 08:23:56;;;;;;;7.60;4.43;;;;;;;8.36;92.75;102116.66;5106144;28;20046;-64
2021/12/16 08:26:25;;;;;;;13.95;4.88;;;;;;;8.36;92.66;102122.84;5095525;28;20074;-64
2021/12/16 08:28:51;;;;;;;5.53;3.30;;;;;;;8.37;92.27;102102.53;5090264;28;20537;-64
2021/12/16 08:31:17;;;;;;;6.60;3.70;;;;;;;8.50;91.87;102109.72;5093646;28;20695;-64
2021/12/16 08:33:43;;;;;;;9.65;4.88;;;;;;;8.46;92.23;102113.22;5097658;28;20036;-64
2021/12/16 08:36:10;;;;;;;12.15;6.15;;;;;;;8.48;91.59;102116.78;5101789;28;20027;-64
2021/12/16 08:38:37;;;;;;;13.50;5.72;;;;;;;8.44;90.93;102120.25;5107601;28;20046;-64
2021/12/16 08:41:28;;;;;;;11.18;6.70;;;;;;;8.50;90.27;102130.94;5106971;28;20403;-64
2021/12/16 08:43:53;;;;;;;12.40;7.13;;;;;;;8.54;90.31;102127.44;5114450;28;20037;-64
2021/12/16 08:46:23;;;;;;;11.73;7.18;;;;;;;8.53;89.88;102128.31;5103074;28;20376;-64
2021/12/16 08:48:49;;;;;;;14.90;7.82;;;;;;;8.55;90.06;102135.41;5093955;28;20028;-64
2021/12/16 08:51:19;;;;;;;13.43;5.85;;;;;;;8.56;89.55;102133.66;5106593;28;20039;-64
2021/12/16 08:53:44;;;;;;;9.32;5.75;;;;;;;8.49;89.27;102134.44;5114653;28;20646;-64
2021/12/16 08:56:12;;;;;;;8.18;5.47;;;;;;;8.32;89.99;102120.16;5113220;28;20019;-64
2021/12/16 08:58:38;;;;;;;10.20;4.30;;;;;;;8.37;90.67;102129.06;5105239;28;20499;-64
2021/12/16 09:01:19;;;;;;;7.70;4.68;;;;;;;8.34;91.18;102136.94;5110193;28;20024;-64
2021/12/16 09:03:45;;;;;;;8.35;4.40;;;;;;;8.32;91.18;102131.63;5113680;28;20023;-64
2021/12/16 09:06:10;;;;;;;8.70;4.90;;;;;;;8.42;90.59;102125.56;5113167;28;20016;-64
2021/12/16 09:08:36;;;;;;;9.85;5.55;;;;;;;8.49;90.31;102130.03;5101716;28;20023;-64
2021/12/16 09:11:05;;;;;;;9.63;4.93;;;;;;;8.52;90.40;102138.03;5093358;28;20036;-64
2021/12/16 09:13:32;;;;;;;9.75;5.63;;;;;;;8.57;90.65;102138.97;5098895;28;20519;-64
2021/12/16 09:16:02;;;;;;;11.48;5.78;;;;;;;8.70;90.60;102145.25;5098852;28;20472;-64
2021/12/16 09:18:31;;;;;;;10.45;5.88;;;;;;;8.76;90.47;102135.63;5094339;28;20051;-64
2021/12/16 09:21:02;;;;;;;8.57;4.63;;;;;;;8.83;90.36;102136.56;5101803;28;20024;-64
2021/12/16 09:23:28;;;;;;;14.38;6.40;;;;;;;8.91;89.86;102140.16;5113668;28;20144;-64
2021/12/16 09:25:54;;;;;;;11.15;6.03;;;;;;;9.00;89.23;102142.88;5113515;27;20039;-64
2021/12/16 09:28:21;;;;;;;8.73;5.78;;;;;;;9.10;89.73;102142.97;5103586;28;20479;-64
2021/12/16 09:30:48;;;;;;;6.78;3.80;;;;;;;9.17;89.43;102144.78;5114005;28;20093;-64
2021/12/16 09:33:16;;;;;;;8.55;4.47;;;;;;;9.27;88.61;102145.72;5108823;28;20487;-64
2021/12/16 09:35:45;;;;;;;8.23;4.03;;;;;;;9.34;86.62;102145.75;5101776;28;20074;-64
2021/12/16 09:38:13;;;;;;;8.57;4.28;;;;;;;9.34;86.00;102148.41;5105868;28;20027;-64
2021/12/16 09:40:47;;;;;;;10.20;5.35;;;;;;;9.32;86.45;102149.31;5114454;28;20114;-64
2021/12/16 09:43:13;;;;;;;9.90;5.15;;;;;;;9.42;85.24;102144.94;5100845;28;20037;-64
2021/12/16 09:45:38;;;;;;;11.77;5.45;;;;;;;9.46;84.76;102150.25;5093308;28;20012;-64
2021/12/16 09:48:07;;;;;;;9.07;4.68;;;;;;;9.49;85.04;102149.41;5099245;28;20164;-64
2021/12/16 09:50:33;;;;;;;9.63;5.72;;;;;;;9.44;84.92;102154.66;5113768;28;20076;-64
2021/12/16 09:52:59;;;;;;;10.98;6.05;;;;;;;9.31;85.76;102155.47;5108352;27;20028;-64
2021/12/16 09:55:26;;;;;;;9.65;5.43;;;;;;;9.12;87.50;102149.19;5108283;28;20030;-64
2021/12/16 09:57:53;;;;;;;8.18;5.53;;;;;;;9.14;88.22;102155.34;5113124;27;20517;-64
2021/12/16 10:00:22;;;;;;;10.48;6.00;;;;;;;9.14;88.36;102165.09;5103567;28;20066;-64
2021/12/16 10:02:49;;;;;;;11.00;5.85;;;;;;;9.14;88.60;102157.16;5109458;28;20476;-64
2021/12/16 10:05:16;;;;;;;9.43;4.40;;;;;;;9.15;88.80;102156.25;5114106;27;20058;-64
2021/12/16 10:07:41;;;;;;;8.77;4.70;;;;;;;9.10;89.07;102163.28;5112891;28;20164;-64
2021/12/16 10:10:15;;;;;;;8.10;4.25;;;;;;;9.16;89.05;102158.03;5103397;28;20023;-64
2021/12/16 10:12:44;;;;;;;7.65;4.53;;;;;;;9.17;88.51;102152.75;5113109;28;20395;-64
2021/12/16 10:18:08;;;;;;;9.07;4.53;;;;;;;9.10;87.72;102163.28;5098142;28;20024;-63
2021/12/16 10:20:57;;;;;;;6.47;3.80;;;;;;;9.16;86.92;102150.06;5094376;28;20480;-62
2021/12/16 10:23:24;;;;;;;11.13;4.72;;;;;;;9.28;87.45;102166.09;5097937;28;20110;-64
2021/12/16 10:25:55;;;;;;;12.52;4.45;;;;;;;9.38;87.15;102167.94;5094175;28;20012;-62
2021/12/16 10:28:27;;;;;;;9.48;4.80;;;;;;;9.42;87.75;102169.72;5108183;28;20047;-62
2021/12/16 10:31:00;;;;;;;9.73;5.22;;;;;;;9.35;87.54;102157.28;5109167;28;20051;-64
2021/12/16 10:33:30;;;;;;;10.20;4.55;;;;;;;9.30;87.53;102159.91;5102087;28;20055;-62
2021/12/16 10:36:14;;;;;;;10.02;6.13;;;;;;;9.45;87.06;102166.19;5094759;28;20024;-62
2021/12/16 10:38:50;;;;;;;8.10;4.35;;;;;;;9.51;86.59;102156.50;5098599;28;20036;-62
2021/12/16 10:41:38;;;;;;;7.22;4.13;;;;;;;9.63;85.40;102160.97;5112732;28;20055;-62
2021/12/16 10:44:16;;;;;;;7.05;4.18;;;;;;;9.58;85.46;102146.78;5112654;28;20102;-62
2021/12/16 10:46:48;;;;;;;7.47;4.35;;;;;;;9.66;85.58;102161.00;5110252;28;20028;-62
2021/12/16 10:49:21;;;;;;;10.05;4.60;;;;;;;9.65;85.74;102154.81;5104827;28;20035;-62
2021/12/16 10:51:50;;;;;;;7.18;4.43;;;;;;;9.66;86.00;102161.91;5112444;28;20023;-62
2021/12/16 10:54:19;;;;;;;6.50;4.10;;;;;;;9.76;85.82;102157.50;5099868;27;20031;-62
2021/12/16 10:57:09;;;;;;;8.68;4.40;;;;;;;9.80;85.23;102156.66;5091405;28;20111;-62
2021/12/16 10:59:55;;;;;;;8.05;4.22;;;;;;;9.85;84.96;102153.13;5094300;28;20539;-62
2021/12/16 11:02:27;;;;;;;9.70;4.68;;;;;;;9.89;84.82;102157.56;5090407;28;20032;-62
2021/12/16 11:05:06;;;;;;;6.93;4.25;;;;;;;9.93;84.61;102155.81;5093974;28;20015;-62
2021/12/16 11:07:50;;;;;;;7.63;3.63;;;;;;;10.03;84.33;102153.19;5107515;28;20109;-64
2021/12/16 11:10:27;;;;;;;8.10;4.75;;;;;;;10.11;84.00;102150.59;5095499;27;20056;-62
2021/12/16 11:13:04;;;;;;;7.22;4.45;;;;;;;10.08;83.74;102145.28;5103583;28;20032;-62
2021/12/16 11:15:33;;;;;;;10.45;4.38;;;;;;;10.10;83.17;102144.38;5090856;28;20040;-62
2021/12/16 11:18:14;;;;;;;8.65;5.30;;;;;;;10.14;84.03;102150.63;5097379;28;20023;-62
2021/12/16 11:20:40;;;;;;;6.72;4.35;;;;;;;10.20;83.49;102161.25;5090953;28;20032;-62
2021/12/16 11:23:10;;;;;;;11.75;4.93;;;;;;;10.20;82.93;102147.97;5093970;28;20023;-62
2021/12/16 11:25:47;;;;;;;15.55;5.00;;;;;;;10.16;82.79;102160.38;5108066;28;20106;-62
2021/12/16 11:28:21;;;;;;;8.27;4.38;;;;;;;10.19;82.80;102160.41;5111506;28;20057;-62
2021/12/16 11:30:56;;;;;;;7.03;4.00;;;;;;;10.23;82.05;102155.97;5113271;28;20046;-62
2021/12/16 11:33:44;;;;;;;9.02;4.80;;;;;;;10.21;83.18;102155.94;5101575;28;20450;-63
2021/12/16 11:36:22;;;;;;;8.68;4.30;;;;;;;10.28;83.53;102157.75;5111950;28;20108;-62
2021/12/16 11:38:49;;;;;;;7.28;4.25;;;;;;;10.29;81.07;102148.00;5111827;28;20099;-62
2021/12/16 11:41:24;;;;;;;9.25;5.47;;;;;;;10.29;82.35;102150.66;5106699;28;20202;-62
2021/12/16 11:43:59;;;;;;;8.50;4.45;;;;;;;10.34;82.73;102152.47;5102497;28;20039;-62
2021/12/16 11:46:52;;;;;;;8.10;5.18;;;;;;;10.36;81.62;102153.31;5091220;28;20024;-62
2021/12/16 11:49:23;;;;;;;10.80;5.22;;;;;;;10.31;82.00;102149.75;5104387;28;20031;-63
2021/12/16 11:51:52;;;;;;;9.70;5.57;;;;;;;10.40;81.34;102152.47;5109986;28;20475;-63
2021/12/16 11:54:32;;;;;;;9.85;4.97;;;;;;;10.41;82.08;102162.19;5111986;28;20027;-63
2021/12/16 11:57:21;;;;;;;9.05;5.28;;;;;;;10.51;82.47;102152.47;5101292;28;20044;-63
2021/12/16 12:00:10;;;;;;;9.40;5.55;;;;;;;10.53;82.44;102148.94;5111690;28;20028;-63
2021/12/16 12:02:39;;;;;;;11.98;5.95;;;;;;;10.49;81.30;102149.81;5101365;28;20016;-63
2021/12/16 12:05:40;;;;;;;9.65;5.07;;;;;;;10.55;81.85;102140.94;5090459;28;20027;-63
2021/12/16 12:08:23;;;;;;;11.50;6.00;;;;;;;10.60;81.62;102132.09;5093116;28;20533;-63
2021/12/16 12:11:06;;;;;;;10.53;5.40;;;;;;;10.55;82.24;102136.53;5107162;28;20114;-63
2021/12/16 12:13:42;;;;;;;9.70;5.03;;;;;;;10.63;81.71;102137.41;5106108;28;20297;-63
2021/12/16 12:16:37;;;;;;;11.02;5.20;;;;;;;10.66;82.43;102139.19;5092717;28;20052;-63
2021/12/16 12:19:02;;;;;;;10.35;5.45;;;;;;;10.71;81.73;102141.88;5087632;28;20086;-63
2021/12/16 12:21:40;;;;;;;10.30;6.22;;;;;;;10.70;81.27;102130.31;5091213;28;20067;-63
2021/12/16 12:24:26;;;;;;;11.27;7.10;;;;;;;10.80;80.29;102133.88;5095058;28;20019;-63
2021/12/16 12:26:59;;;;;;;16.10;7.90;;;;;;;10.97;81.58;102124.13;5108781;28;20080;-63
2021/12/16 12:29:28;;;;;;;11.38;7.05;;;;;;;11.20;79.25;102127.66;5091451;28;20043;-63
2021/12/16 12:32:02;;;;;;;11.18;7.07;;;;;;;11.32;78.02;102133.81;5101693;28;20028;-63
2021/12/16 12:34:29;;;;;;;10.52;6.25;;;;;;;11.29;78.75;102119.63;5096025;28;20510;-63
2021/12/16 12:36:57;;;;;;;23.40;12.85;;;;;;;11.42;77.83;102127.59;5100080;28;20027;-63
2021/12/16 12:39:28;;;;;;;15.73;11.10;;;;;;;11.60;76.57;102121.31;5110795;28;20036;-63
2021/12/16 12:41:54;;;;;;;13.20;6.90;;;;;;;11.55;77.09;102112.44;5110678;28;20024;-63
2021/12/16 12:44:21;;;;;;;14.23;6.40;;;;;;;11.61;76.49;102113.31;5111020;28;20035;-64
2021/12/16 12:46:47;;;;;;;18.05;9.50;;;;;;;11.41;77.26;102108.94;5107192;28;20031;-63
2021/12/16 12:49:16;;;;;;;13.88;6.70;;;;;;;11.52;76.69;102104.47;5100302;28;20107;-62
2021/12/16 12:51:46;;;;;;;12.18;7.00;;;;;;;11.50;75.93;102104.47;5110005;28;20028;-62
2021/12/16 12:54:17;;;;;;;11.30;6.38;;;;;;;11.46;76.21;102101.81;5103485;28;20031;-62
2021/12/16 12:56:43;;;;;;;11.48;6.40;;;;;;;11.38;76.02;102099.16;5093609;28;20036;-62
2021/12/16 12:59:15;;;;;;;13.25;7.28;;;;;;;11.43;77.10;102101.84;5089734;28;20065;-63
2021/12/16 13:01:47;;;;;;;13.70;6.60;;;;;;;11.49;77.23;102093.81;5097809;28;20031;-63
2021/12/16 13:04:21;;;;;;;10.65;6.65;;;;;;;11.40;77.76;102088.53;5090862;28;20062;-63
2021/12/16 13:06:57;;;;;;;14.18;6.50;;;;;;;11.40;77.15;102093.84;5094031;28;20484;-63
2021/12/16 13:09:29;;;;;;;12.50;6.32;;;;;;;11.39;77.29;102100.97;5110295;28;20046;-63
2021/12/16 13:11:55;;;;;;;21.42;7.15;;;;;;;11.31;77.99;102091.22;5106786;28;20042;-63
2021/12/16 13:14:35;;;;;;;19.50;6.75;;;;;;;11.33;78.93;102100.09;5101550;28;20052;-63
2021/12/16 13:17:41;;;;;;;15.57;7.55;;;;;;;11.26;78.21;102093.88;5089689;28;20434;-63
2021/12/16 13:28:40;;;;;;;11.30;5.93;;;;;;;10.83;78.45;102092.16;5103680;28;20030;-63
2021/12/16 13:31:29;;;;;;;10.32;6.25;;;;;;;10.74;79.46;102091.28;5113712;28;20053;-63
2021/12/16 13:33:57;;;;;;;11.93;7.18;;;;;;;10.67;80.35;102084.19;5104088;27;20028;-63
2021/12/16 13:36:43;;;;;;;13.98;6.90;;;;;;;10.70;79.77;102098.38;5096270;28;20059;-63
2021/12/16 13:39:15;;;;;;;13.10;6.38;;;;;;;10.59;80.66;102095.72;5093524;28;20058;-63
2021/12/16 13:41:57;;;;;;;13.50;7.07;;;;;;;10.70;81.37;102100.16;5094774;28;20141;-63
2021/12/16 13:44:35;;;;;;;15.20;7.28;;;;;;;10.70;81.40;102094.81;5102597;28;20027;-63
2021/12/16 13:47:24;;;;;;;15.05;7.03;;;;;;;10.67;81.19;102094.84;5112887;28;20023;-63
2021/12/16 14:02:05;;;;;;;14.70;7.13;;;;;;;10.77;82.24;102096.63;5094990;28;20019;-63
2021/12/16 14:10:21;;;;;;;15.82;8.32;;;;;;;10.77;83.15;102112.59;5105613;28;20061;-63
2021/12/16 14:24:19;;;;;;;17.27;7.30;;;;;;;10.60;83.83;102116.13;5112349;28;20088;-63
2021/12/16 14:27:03;;;;;;;12.73;6.57;;;;;;;10.58;84.23;102112.56;5101912;28;20031;-63
2021/12/16 14:33:25;;;;;;;13.43;7.65;;;;;;;10.46;85.25;102117.88;5091704;28;20063;-63
2021/12/16 14:35:29;;;;;;;;;;;;;;;10.47;85.05;102117.00;5105942;28;20036;-63
2021/12/16 14:38:16;;;;;;;15.98;8.05;;;;;;;10.44;85.89;102113.44;5112139;28;19943;-63
2021/12/16 14:41:05;;;;;;;16.13;8.90;;;;;;;10.43;85.56;102119.63;5113089;28;20024;-63
2021/12/16 14:43:52;;;;;;;18.70;8.48;;;;;;;10.29;86.77;102122.31;5110428;28;20471;-63
2021/12/16 14:46:27;;;;;;;18.55;9.60;;;;;;;10.26;87.28;102118.75;5110813;28;20031;-63
2021/12/16 14:48:52;;;;;;;17.23;9.20;;;;;;;10.26;87.13;102122.28;5106221;28;20034;-63
2021/12/16 14:51:18;;;;;;;18.63;7.90;;;;;;;10.20;87.58;102113.38;5105417;28;20032;-63
2021/12/16 14:53:47;;;;;;;18.52;9.20;;;;;;;10.12;87.82;102110.72;5112936;28;20027;-63
2021/12/16 14:56:24;;;;;;;16.42;8.57;;;;;;;10.19;87.22;102111.63;5107316;28;20483;-63
2021/12/16 14:59:04;;;;;;;22.67;12.05;;;;;;;10.21;88.05;102110.72;5108463;28;20084;-63